createdAt,value
2023-05-23T00:00:44.964Z,94404.00
2023-05-23T00:03:12.896Z,94402.94
2023-05-23T00:05:41.010Z,94395.09
2023-05-23T00:08:09.146Z,94391.22
2023-05-23T00:10:38.372Z,94397.16
2023-05-23T00:13:09.468Z,94409.16
2023-05-23T00:15:38.309Z,94397.53
2023-05-23T00:18:09.004Z,94402.41
2023-05-23T00:20:38.032Z,94399.66
2023-05-23T00:23:06.095Z,94399.72
2023-05-23T00:25:35.877Z,94396.28
2023-05-23T00:28:06.405Z,94381.13
2023-05-23T00:30:38.010Z,94392.41
2023-05-23T00:33:06.414Z,94397.97
2023-05-23T00:35:34.325Z,94397.19
2023-05-23T00:38:02.401Z,94397.47
2023-05-23T00:40:30.459Z,94396.84
2023-05-23T00:42:58.346Z,94393.63
2023-05-23T00:45:27.611Z,94389.38
2023-05-23T00:47:55.799Z,94397.00
2023-05-23T00:50:23.933Z,94391.91
2023-05-23T00:52:52.240Z,94383.53
2023-05-23T00:55:20.378Z,94387.13
2023-05-23T00:57:48.532Z,94392.16
2023-05-23T01:00:17.196Z,94387.31
2023-05-23T01:02:48.239Z,94386.25
2023-05-23T01:05:17.768Z,94389.66
2023-05-23T01:07:46.881Z,94395.75
2023-05-23T01:13:19.595Z,94403.16
2023-05-23T01:15:55.250Z,94395.97
2023-05-23T01:18:30.646Z,94385.84
2023-05-23T01:21:02.606Z,94389.59
2023-05-23T01:23:45.974Z,94394.00
2023-05-23T01:26:26.377Z,94397.13
2023-05-23T01:28:59.813Z,94393.81
2023-05-23T01:31:31.261Z,94399.94
2023-05-23T01:33:59.482Z,94397.59
2023-05-23T01:36:27.437Z,94396.22
2023-05-23T01:38:55.370Z,94398.84
2023-05-23T01:41:23.420Z,94401.88
2023-05-23T01:43:51.356Z,94391.94
2023-05-23T01:46:22.182Z,94389.94
2023-05-23T01:48:51.620Z,94384.91
2023-05-23T01:51:19.736Z,94380.69
2023-05-23T01:53:47.750Z,94384.19
2023-05-23T01:56:15.819Z,94377.38
2023-05-23T01:58:43.962Z,94376.28
2023-05-23T02:01:12.407Z,94381.50
2023-05-23T02:03:42.057Z,94380.00
2023-05-23T02:06:09.991Z,94379.16
2023-05-23T02:08:37.882Z,94385.59
2023-05-23T02:11:05.886Z,94388.44
2023-05-23T02:13:33.794Z,94384.13
2023-05-23T02:16:01.889Z,94390.75
2023-05-23T02:18:30.060Z,94380.88
2023-05-23T02:20:59.298Z,94386.47
2023-05-23T02:23:27.210Z,94389.19
2023-05-23T02:25:55.203Z,94383.00
2023-05-23T02:28:23.149Z,94378.91
2023-05-23T02:30:51.122Z,94380.97
2023-05-23T02:33:19.775Z,94383.00
2023-05-23T02:35:47.780Z,94375.59
2023-05-23T02:38:17.545Z,94378.97
2023-05-23T02:40:45.555Z,94369.50
2023-05-23T02:43:13.627Z,94373.91
2023-05-23T02:45:41.768Z,94369.88
2023-05-23T02:48:09.993Z,94377.31
2023-05-23T02:50:38.040Z,94369.44
2023-05-23T02:53:05.938Z,94370.53
2023-05-23T02:55:35.220Z,94371.56
2023-05-23T02:58:05.978Z,94375.38
2023-05-23T03:00:33.882Z,94379.56
2023-05-23T03:03:01.921Z,94376.16
2023-05-23T03:05:29.897Z,94376.63
2023-05-23T03:07:57.795Z,94378.31
2023-05-23T03:10:25.678Z,94374.75
2023-05-23T03:12:54.955Z,94372.75
2023-05-23T03:15:22.817Z,94367.03
2023-05-23T03:17:50.882Z,94372.75
2023-05-23T03:20:18.889Z,94371.84
2023-05-23T03:22:46.802Z,94374.38
2023-05-23T03:25:17.227Z,94381.78
2023-05-23T03:27:45.144Z,94381.78
2023-05-23T03:30:14.999Z,94372.03
2023-05-23T03:32:43.043Z,94389.13
2023-05-23T03:35:11.531Z,94388.03
2023-05-23T03:37:39.456Z,94390.47
2023-05-23T03:40:09.802Z,94396.34
2023-05-23T03:42:38.145Z,94396.91
2023-05-23T03:45:07.594Z,94395.56
2023-05-23T03:47:36.949Z,94400.22
2023-05-23T03:50:05.317Z,94398.69
2023-05-23T03:52:33.248Z,94396.09
2023-05-23T03:55:01.219Z,94401.13
2023-05-23T03:57:29.187Z,94402.19
2023-05-23T03:59:57.090Z,94411.25
2023-05-23T04:02:25.063Z,94404.00
2023-05-23T04:04:57.098Z,94410.53
2023-05-23T04:07:26.600Z,94396.88
2023-05-23T04:09:54.519Z,94393.72
2023-05-23T04:12:22.814Z,94402.16
2023-05-23T04:14:50.808Z,94407.09
2023-05-23T04:17:19.001Z,94375.75
2023-05-23T04:19:47.125Z,94399.13
2023-05-23T04:22:16.509Z,94395.59
2023-05-23T04:24:44.512Z,94396.78
2023-05-23T04:27:13.778Z,94401.91
2023-05-23T04:29:41.790Z,94393.13
2023-05-23T04:32:09.716Z,94406.31
2023-05-23T04:34:38.058Z,94402.38
2023-05-23T04:37:07.337Z,94399.88
2023-05-23T04:39:36.857Z,94403.81
2023-05-23T04:42:07.364Z,94393.97
2023-05-23T04:44:37.488Z,94406.75
2023-05-23T04:47:05.945Z,94402.91
2023-05-23T04:49:34.351Z,94416.00
2023-05-23T04:52:02.303Z,94409.13
2023-05-23T04:54:30.313Z,94417.38
2023-05-23T04:57:00.194Z,94420.75
2023-05-23T04:59:28.471Z,94417.56
2023-05-23T05:01:56.401Z,94412.69
2023-05-23T05:04:24.454Z,94411.28
2023-05-23T05:06:52.668Z,94415.16
2023-05-23T05:09:22.208Z,94424.28
2023-05-23T05:11:50.280Z,94429.50
2023-05-23T05:14:19.543Z,94436.31
2023-05-23T05:16:48.881Z,94429.41
2023-05-23T05:19:16.929Z,94437.28
2023-05-23T05:21:45.169Z,94433.59
2023-05-23T05:24:13.141Z,94435.16
2023-05-23T05:26:41.117Z,94431.38
2023-05-23T05:29:09.044Z,94432.59
2023-05-23T05:31:38.598Z,94429.44
2023-05-23T05:34:06.526Z,94433.22
2023-05-23T05:36:34.451Z,94433.53
2023-05-23T05:39:02.362Z,94440.38
2023-05-23T05:41:30.248Z,94439.38
2023-05-23T05:43:58.154Z,94443.53
2023-05-23T05:46:26.346Z,94439.72
2023-05-23T05:48:55.719Z,94440.75
2023-05-23T05:51:23.847Z,94443.03
2023-05-23T05:53:51.825Z,94440.41
2023-05-23T05:56:20.011Z,94448.19
2023-05-23T05:58:47.980Z,94446.56
2023-05-23T06:01:15.932Z,94438.44
2023-05-23T06:03:44.706Z,94443.69
2023-05-23T06:06:14.377Z,94446.03
2023-05-23T06:08:43.092Z,94446.41
2023-05-23T06:11:12.182Z,94442.25
2023-05-23T06:13:40.724Z,94450.25
2023-05-23T06:16:08.665Z,94439.66
2023-05-23T06:18:36.978Z,94446.13
2023-05-23T06:21:08.079Z,94454.38
2023-05-23T06:23:37.473Z,94451.19
2023-05-23T06:26:08.063Z,94452.16
2023-05-23T06:28:36.017Z,94449.63
2023-05-23T06:31:04.176Z,94451.81
2023-05-23T06:33:32.298Z,94450.25
2023-05-23T06:36:00.252Z,94451.63
2023-05-23T06:38:29.714Z,94452.06
2023-05-23T06:40:59.058Z,94451.63
2023-05-23T06:43:27.408Z,94443.38
2023-05-23T06:45:55.543Z,94447.91
2023-05-23T06:48:23.596Z,94442.22
2023-05-23T06:50:52.290Z,94443.09
2023-05-23T06:53:20.366Z,94445.22
2023-05-23T06:55:48.434Z,94447.19
2023-05-23T06:58:17.883Z,94439.94
2023-05-23T07:00:45.866Z,94436.56
2023-05-23T07:03:13.860Z,94426.72
2023-05-23T07:05:41.929Z,94435.47
2023-05-23T07:08:11.170Z,94430.44
2023-05-23T07:10:41.912Z,94431.06
2023-05-23T07:13:10.362Z,94421.44
2023-05-23T07:15:39.804Z,94422.91
2023-05-23T07:18:08.232Z,94423.97
2023-05-23T07:20:36.259Z,94403.28
2023-05-23T07:23:04.264Z,94410.31
2023-05-23T07:25:32.404Z,94402.69
2023-05-23T07:28:00.434Z,94408.53
2023-05-23T07:30:28.402Z,94404.50
2023-05-23T07:32:57.864Z,94387.78
2023-05-23T07:35:26.443Z,94390.41
2023-05-23T07:37:54.501Z,94402.06
2023-05-23T07:40:22.592Z,94396.19
2023-05-23T07:42:50.613Z,94398.38
2023-05-23T07:45:18.980Z,94391.84
2023-05-23T07:47:47.158Z,94396.00
2023-05-23T07:50:16.721Z,94399.16
2023-05-23T07:52:45.296Z,94396.13
2023-05-23T07:55:15.122Z,94399.03
2023-05-23T07:57:43.117Z,94391.19
2023-05-23T08:00:12.589Z,94391.19
2023-05-23T08:02:40.721Z,94396.56
2023-05-23T08:05:09.811Z,94394.00
2023-05-23T08:07:39.371Z,94396.75
2023-05-23T08:10:08.724Z,94392.06
2023-05-23T08:12:36.734Z,94391.81
2023-05-23T08:15:05.295Z,94380.78
2023-05-23T08:17:33.345Z,94385.75
2023-05-23T08:20:02.281Z,94386.75
2023-05-23T08:22:30.309Z,94386.75
2023-05-23T08:24:59.699Z,94396.03
2023-05-23T08:27:27.751Z,94387.59
2023-05-23T08:29:55.796Z,94385.44
2023-05-23T08:32:23.960Z,94395.25
2023-05-23T08:34:51.995Z,94393.22
2023-05-23T08:37:20.162Z,94391.19
2023-05-23T08:39:48.212Z,94391.63
2023-05-23T08:42:17.708Z,94384.94
2023-05-23T08:44:45.753Z,94386.91
2023-05-23T08:47:17.699Z,94377.22
2023-05-23T08:49:47.251Z,94386.16
2023-05-23T08:52:19.097Z,94391.50
2023-05-23T08:54:47.863Z,94390.88
2023-05-23T08:57:18.520Z,94376.50
2023-05-23T08:59:48.330Z,94374.69
2023-05-23T09:02:17.795Z,94375.25
2023-05-23T09:04:46.754Z,94380.53
2023-05-23T09:07:17.174Z,94383.75
2023-05-23T09:09:45.685Z,94371.50
2023-05-23T09:12:15.543Z,94382.56
2023-05-23T09:14:47.214Z,94381.97
2023-05-23T09:17:19.528Z,94370.09
2023-05-23T09:19:48.252Z,94371.34
2023-05-23T09:22:17.492Z,94378.19
2023-05-23T09:24:45.474Z,94368.56
2023-05-23T09:27:13.681Z,94374.63
2023-05-23T09:29:41.612Z,94373.56
2023-05-23T09:32:14.813Z,94369.13
2023-05-23T09:34:43.512Z,94381.78
2023-05-23T09:37:19.610Z,94357.56
2023-05-23T09:39:51.003Z,94374.28
2023-05-23T09:42:23.822Z,94368.75
2023-05-23T09:44:52.183Z,94355.63
2023-05-23T09:47:21.669Z,94357.91
2023-05-23T09:49:49.754Z,94355.47
2023-05-23T09:52:20.208Z,94351.66
2023-05-23T09:54:48.659Z,94357.09
2023-05-23T09:57:18.078Z,94358.88
2023-05-23T09:59:54.303Z,94348.00
2023-05-23T10:02:51.577Z,94347.88
2023-05-23T10:05:34.613Z,94346.19
2023-05-23T10:08:04.014Z,94354.69
2023-05-23T10:10:34.054Z,94343.81
2023-05-23T10:13:05.467Z,94351.53
2023-05-23T10:15:39.427Z,94343.19
2023-05-23T10:18:19.255Z,94355.06
2023-05-23T10:20:51.077Z,94345.47
2023-05-23T10:23:20.324Z,94341.34
2023-05-23T10:25:49.806Z,94344.16
2023-05-23T10:28:18.016Z,94339.44
2023-05-23T10:30:48.015Z,94339.63
2023-05-23T10:33:18.591Z,94331.66
2023-05-23T10:35:55.926Z,94336.38
2023-05-23T10:38:34.287Z,94337.03
2023-05-23T10:41:11.830Z,94322.41
2023-05-23T10:43:48.466Z,94324.66
2023-05-23T10:46:16.777Z,94318.25
2023-05-23T10:48:46.445Z,94318.72
2023-05-23T10:51:16.289Z,94315.25
2023-05-23T10:53:45.531Z,94316.31
2023-05-23T10:56:23.708Z,94311.16
2023-05-23T10:58:54.992Z,94312.78
2023-05-23T11:01:23.872Z,94310.13
2023-05-23T11:03:55.525Z,94317.56
2023-05-23T11:06:33.374Z,94310.03
2023-05-23T11:09:07.505Z,94304.06
2023-05-23T11:12:04.728Z,94311.78
2023-05-23T11:14:34.982Z,94312.16
2023-05-23T11:17:17.504Z,94304.19
2023-05-23T11:20:00.992Z,94296.22
2023-05-23T11:22:29.775Z,94302.06
2023-05-23T11:24:59.353Z,94287.84
2023-05-23T11:27:28.671Z,94288.59
2023-05-23T11:30:02.284Z,94293.44
2023-05-23T11:32:31.497Z,94298.75
2023-05-23T11:35:05.258Z,94289.72
2023-05-23T11:37:33.322Z,94288.44
2023-05-23T11:40:03.065Z,94276.47
2023-05-23T11:42:31.078Z,94285.13
2023-05-23T11:44:59.063Z,94282.38
2023-05-23T11:47:27.028Z,94272.94
2023-05-23T11:49:55.123Z,94272.13
2023-05-23T11:52:24.527Z,94273.81
2023-05-23T11:54:54.805Z,94277.13
2023-05-23T11:57:23.683Z,94274.88
2023-05-23T11:59:52.986Z,94277.47
2023-05-23T12:02:22.687Z,94278.50
2023-05-23T12:04:50.971Z,94268.56
2023-05-23T12:07:20.862Z,94272.44
2023-05-23T12:09:50.213Z,94265.38
2023-05-23T12:12:18.196Z,94262.41
2023-05-23T12:14:46.469Z,94254.03
2023-05-23T12:17:14.924Z,94247.84
2023-05-23T12:19:48.005Z,94248.66
2023-05-23T12:22:16.944Z,94247.84
2023-05-23T12:24:48.525Z,94240.88
2023-05-23T12:27:18.701Z,94242.69
2023-05-23T12:29:52.869Z,94239.09
2023-05-23T12:32:20.937Z,94239.34
2023-05-23T12:34:50.789Z,94244.06
2023-05-23T12:37:20.447Z,94233.72
2023-05-23T12:39:48.795Z,94226.66
2023-05-23T12:42:18.162Z,94223.19
2023-05-23T12:44:47.149Z,94223.47
2023-05-23T12:47:15.227Z,94231.06
2023-05-23T12:49:44.944Z,94226.31
2023-05-23T12:52:13.049Z,94218.16
2023-05-23T12:54:41.266Z,94209.91
2023-05-23T12:57:09.314Z,94215.13
2023-05-23T12:59:38.758Z,94205.75
2023-05-23T13:02:07.419Z,94210.84
2023-05-23T13:04:35.907Z,94204.81
2023-05-23T13:07:03.835Z,94201.47
2023-05-23T13:09:31.769Z,94211.78
2023-05-23T13:12:00.823Z,94201.47
2023-05-23T13:14:29.229Z,94203.31
2023-05-23T13:16:59.083Z,94200.34
2023-05-23T13:19:28.732Z,94199.66
2023-05-23T13:21:56.997Z,94201.22
2023-05-23T13:24:25.081Z,94204.38
2023-05-23T13:26:53.717Z,94204.91
2023-05-23T13:29:24.403Z,94188.59
2023-05-23T13:31:53.350Z,94189.00
2023-05-23T13:34:22.785Z,94202.06
2023-05-23T13:36:50.790Z,94201.03
2023-05-23T13:39:19.897Z,94208.25
2023-05-23T13:41:48.195Z,94200.84
2023-05-23T13:44:19.477Z,94196.03
2023-05-23T13:46:47.630Z,94198.03
2023-05-23T13:49:15.830Z,94195.78
2023-05-23T13:51:45.279Z,94197.84
2023-05-23T13:54:14.038Z,94205.84
2023-05-23T13:56:42.017Z,94210.13
2023-05-23T13:59:10.043Z,94197.22
2023-05-23T14:01:38.176Z,94200.28
2023-05-23T14:04:07.250Z,94199.28
2023-05-23T14:06:35.299Z,94194.69
2023-05-23T14:09:05.256Z,94199.59
2023-05-23T14:11:33.464Z,94204.66
2023-05-23T14:14:01.385Z,94199.31
2023-05-23T14:16:29.383Z,94192.41
2023-05-23T14:18:57.341Z,94194.13
2023-05-23T14:21:25.406Z,94192.75
2023-05-23T14:23:53.703Z,94187.88
2023-05-23T14:26:23.599Z,94192.88
2023-05-23T14:28:51.640Z,94192.16
2023-05-23T14:31:20.746Z,94187.78
2023-05-23T14:33:49.919Z,94186.34
2023-05-23T14:36:17.876Z,94188.78
2023-05-23T14:38:46.626Z,94187.81
2023-05-23T14:41:15.132Z,94188.66
2023-05-23T14:43:44.500Z,94175.19
2023-05-23T14:46:13.904Z,94186.00
2023-05-23T14:48:42.135Z,94184.19
2023-05-23T14:51:11.310Z,94190.28
2023-05-23T14:53:41.083Z,94180.28
2023-05-23T14:56:09.065Z,94180.16
2023-05-23T14:58:37.340Z,94175.88
2023-05-23T15:01:07.641Z,94176.69
2023-05-23T15:03:35.971Z,94166.44
2023-05-23T15:06:04.460Z,94166.09
2023-05-23T15:08:32.443Z,94165.22
2023-05-23T15:11:00.480Z,94165.72
2023-05-23T15:13:28.500Z,94170.66
2023-05-23T15:15:57.611Z,94168.97
2023-05-23T15:18:39.604Z,94157.03
2023-05-23T15:21:09.137Z,94155.63
2023-05-23T15:23:37.442Z,94161.25
2023-05-23T15:26:05.516Z,94165.41
2023-05-23T15:28:33.597Z,94166.72
2023-05-23T15:31:01.564Z,94165.25
2023-05-23T15:33:30.917Z,94165.78
2023-05-23T15:35:59.511Z,94162.31
2023-05-23T15:38:27.447Z,94161.72
2023-05-23T15:40:56.682Z,94159.16
2023-05-23T15:43:25.317Z,94165.88
2023-05-23T15:45:53.551Z,94160.03
2023-05-23T15:48:21.562Z,94156.94
2023-05-23T15:50:51.554Z,94157.91
2023-05-23T15:53:19.830Z,94160.84
2023-05-23T15:55:47.964Z,94152.53
2023-05-23T15:58:16.763Z,94146.44
2023-05-23T16:00:44.843Z,94153.72
2023-05-23T16:03:13.005Z,94152.94
2023-05-23T16:05:41.173Z,94157.16
2023-05-23T16:08:10.793Z,94153.84
2023-05-23T16:10:38.774Z,94160.50
2023-05-23T16:13:09.042Z,94159.84
2023-05-23T16:15:37.540Z,94157.88
2023-05-23T16:18:06.256Z,94152.09
2023-05-23T16:20:34.994Z,94163.97
2023-05-23T16:23:03.009Z,94161.56
2023-05-23T16:25:32.348Z,94161.81
2023-05-23T16:28:00.577Z,94170.13
2023-05-23T16:30:28.661Z,94168.72
2023-05-23T16:32:56.679Z,94164.53
2023-05-23T16:35:25.635Z,94172.69
2023-05-23T16:37:53.649Z,94177.47
2023-05-23T16:40:21.925Z,94177.66
2023-05-23T16:42:51.434Z,94169.47
2023-05-23T16:45:19.835Z,94173.06
2023-05-23T16:47:47.819Z,94186.34
2023-05-23T16:50:17.409Z,94169.50
2023-05-23T16:52:45.393Z,94181.06
2023-05-23T16:55:13.415Z,94181.50
2023-05-23T16:57:41.721Z,94189.44
2023-05-23T17:00:12.626Z,94185.22
2023-05-23T17:02:41.116Z,94192.16
2023-05-23T17:05:09.820Z,94183.16
2023-05-23T17:07:37.865Z,94180.75
2023-05-23T17:10:06.525Z,94193.63
2023-05-23T17:12:34.495Z,94197.16
2023-05-23T17:15:02.597Z,94187.84
2023-05-23T17:17:32.132Z,94188.75
2023-05-23T17:20:00.288Z,94184.03
2023-05-23T17:22:28.321Z,94174.06
2023-05-23T17:24:56.595Z,94197.50
2023-05-23T17:27:24.702Z,94199.09
2023-05-23T17:29:52.676Z,94197.28
2023-05-23T17:32:20.832Z,94192.19
2023-05-23T17:34:50.254Z,94200.44
2023-05-23T17:37:26.417Z,94202.28
2023-05-23T17:39:57.333Z,94199.84
2023-05-23T17:42:26.621Z,94202.13
2023-05-23T17:44:54.687Z,94203.66
2023-05-23T17:47:22.728Z,94204.63
2023-05-23T17:49:52.369Z,94199.81
2023-05-23T17:52:20.424Z,94200.34
2023-05-23T17:54:48.478Z,94205.03
2023-05-23T17:57:16.984Z,94203.03
2023-05-23T17:59:45.278Z,94210.66
2023-05-23T18:02:13.278Z,94210.31
2023-05-23T18:04:43.013Z,94197.22
2023-05-23T18:07:13.153Z,94218.31
2023-05-23T18:09:42.381Z,94222.56
2023-05-23T18:12:11.596Z,94205.84
2023-05-23T18:14:39.990Z,94232.56
2023-05-23T18:17:08.602Z,94233.53
2023-05-23T18:19:37.547Z,94233.00
2023-05-23T18:22:06.614Z,94228.00
2023-05-23T18:24:36.213Z,94232.13
2023-05-23T18:27:04.711Z,94234.72
2023-05-23T18:29:32.869Z,94242.78
2023-05-23T18:32:00.901Z,94243.25
2023-05-23T18:34:29.397Z,94252.09
2023-05-23T18:36:57.705Z,94251.78
2023-05-23T18:39:26.411Z,94258.41
2023-05-23T18:41:55.918Z,94263.59
2023-05-23T18:44:24.069Z,94273.72
2023-05-23T18:46:52.091Z,94272.16
2023-05-23T18:49:20.401Z,94272.78
2023-05-23T18:51:48.482Z,94260.09
2023-05-23T18:54:16.467Z,94271.19
2023-05-23T18:56:44.581Z,94264.53
2023-05-23T18:59:15.906Z,94264.78
2023-05-23T19:01:43.964Z,94281.72
2023-05-23T19:04:12.211Z,94290.44
2023-05-23T19:06:40.476Z,94298.94
2023-05-23T19:09:11.504Z,94307.47
2023-05-23T19:11:40.344Z,94292.03
2023-05-23T19:14:08.320Z,94310.00
2023-05-23T19:16:40.016Z,94325.22
2023-05-23T19:19:08.092Z,94319.84
2023-05-23T19:21:36.288Z,94315.63
2023-05-23T19:24:07.523Z,94331.06
2023-05-23T19:26:38.407Z,94337.72
2023-05-23T19:29:06.537Z,94330.97
2023-05-23T19:31:34.711Z,94321.56
2023-05-23T19:34:04.263Z,94342.88
2023-05-23T19:36:33.208Z,94342.63
2023-05-23T19:39:01.667Z,94340.81
2023-05-23T19:41:29.637Z,94329.81
2023-05-23T19:43:57.614Z,94351.91
2023-05-23T19:46:25.728Z,94345.97
2023-05-23T19:48:54.346Z,94355.13
2023-05-23T19:51:23.769Z,94358.75
2023-05-23T19:53:52.399Z,94339.88
2023-05-23T19:56:20.876Z,94362.78
2023-05-23T19:58:48.941Z,94346.16
2023-05-23T20:01:17.158Z,94358.84
2023-05-23T20:03:45.252Z,94346.28
2023-05-23T20:06:13.801Z,94354.06
2023-05-23T20:08:43.201Z,94347.84
2023-05-23T20:11:12.644Z,94354.81
2023-05-23T20:13:40.816Z,94357.09
2023-05-23T20:16:09.049Z,94349.06
2023-05-23T20:18:37.454Z,94352.38
2023-05-23T20:21:05.817Z,94356.75
2023-05-23T20:23:33.755Z,94346.44
2023-05-23T20:26:03.177Z,94353.69
2023-05-23T20:28:31.497Z,94345.06
2023-05-23T20:30:59.649Z,94355.81
2023-05-23T20:33:27.783Z,94361.88
2023-05-23T20:35:55.766Z,94355.88
2023-05-23T20:38:24.844Z,94367.88
2023-05-23T20:40:53.637Z,94367.88
2023-05-23T20:43:23.796Z,94349.75
2023-05-23T20:45:51.733Z,94362.81
2023-05-23T20:48:19.790Z,94357.22
2023-05-23T20:50:47.854Z,94338.78
2023-05-23T20:53:15.873Z,94354.88
2023-05-23T20:55:44.226Z,94358.94
2023-05-23T20:58:12.584Z,94356.59
2023-05-23T21:00:42.211Z,94362.41
2023-05-23T21:03:10.435Z,94361.84
2023-05-23T21:05:38.350Z,94360.19
2023-05-23T21:08:06.487Z,94362.59
2023-05-23T21:10:34.560Z,94356.88
2023-05-23T21:13:02.610Z,94371.50
2023-05-23T21:15:30.741Z,94355.06
2023-05-23T21:18:00.487Z,94365.94
2023-05-23T21:20:29.344Z,94362.25
2023-05-23T21:22:57.529Z,94366.50
2023-05-23T21:25:25.509Z,94368.38
2023-05-23T21:27:53.587Z,94369.84
2023-05-23T21:30:21.659Z,94361.28
2023-05-23T21:32:50.081Z,94374.16
2023-05-23T21:35:19.605Z,94378.94
2023-05-23T21:37:47.614Z,94387.19
2023-05-23T21:40:15.653Z,94372.38
2023-05-23T21:42:43.774Z,94393.59
2023-05-23T21:45:12.414Z,94377.66
2023-05-23T21:47:40.447Z,94393.38
2023-05-23T21:50:09.520Z,94390.03
2023-05-23T21:52:39.103Z,94398.13
2023-05-23T21:55:07.363Z,94388.47
2023-05-23T21:57:35.341Z,94391.91
2023-05-23T22:00:04.784Z,94395.34
2023-05-23T22:02:33.179Z,94399.03
2023-05-23T22:05:01.189Z,94389.03
2023-05-23T22:07:31.216Z,94404.38
2023-05-23T22:10:00.632Z,94403.94
2023-05-23T22:12:28.886Z,94399.94
2023-05-23T22:14:57.416Z,94389.88
2023-05-23T22:17:26.576Z,94396.81
2023-05-23T22:19:57.074Z,94405.25
2023-05-23T22:22:25.089Z,94402.44
2023-05-23T22:24:53.158Z,94397.63
2023-05-23T22:27:22.603Z,94396.63
2023-05-23T22:29:50.839Z,94393.44
2023-05-23T22:32:20.052Z,94392.22
2023-05-23T22:34:48.069Z,94393.44
2023-05-23T22:37:17.020Z,94388.81
2023-05-23T22:39:44.926Z,94388.44
2023-05-23T22:42:12.965Z,94397.25
2023-05-23T22:44:42.271Z,94396.88
2023-05-23T22:47:13.708Z,94387.38
2023-05-23T22:49:42.529Z,94391.63
2023-05-23T22:52:10.586Z,94390.44
2023-05-23T22:54:38.590Z,94398.69
2023-05-23T22:57:06.813Z,94382.78
2023-05-23T22:59:35.422Z,94384.81
2023-05-23T23:02:06.425Z,94389.03
2023-05-23T23:04:35.365Z,94380.75
2023-05-23T23:07:03.329Z,94382.59
2023-05-23T23:09:31.347Z,94389.59
2023-05-23T23:11:59.276Z,94375.94
2023-05-23T23:14:27.320Z,94370.91
2023-05-23T23:16:56.073Z,94375.72
2023-05-23T23:19:25.504Z,94367.09
2023-05-23T23:21:53.432Z,94376.13
2023-05-23T23:24:21.783Z,94379.38
2023-05-23T23:26:49.768Z,94367.50
2023-05-23T23:29:17.694Z,94378.78
2023-05-23T23:31:45.856Z,94364.09
2023-05-23T23:34:13.967Z,94365.50
2023-05-23T23:36:43.261Z,94372.72
2023-05-23T23:39:11.323Z,94369.50
2023-05-23T23:41:39.184Z,94365.66
2023-05-23T23:44:07.131Z,94354.81
2023-05-23T23:46:35.154Z,94365.47
2023-05-23T23:49:03.255Z,94357.59
2023-05-23T23:51:32.174Z,94357.59
2023-05-23T23:54:01.595Z,94356.16
2023-05-23T23:56:29.603Z,94358.59
2023-05-23T23:58:57.600Z,94361.81
